Terminal Aerodrome Forecast
Issued by NWS Grand Junction, CO

Home | Current Version | Previous Version | Text Only | Print | Product List | Glossary On
Versions: 1 2 3 4 5 6 7 8 9 10 11 12 13
000
FTUS45 KGJT 280541
TAFGJT
TAF
KGJT 280541Z 2806/2906 30011KT 6SM SHRA BR FEW022 OVC040
     FM280700 03004KT P6SM -SHRA SCT020 OVC050
     FM281000 35006KT P6SM VCSH BKN035
     FM281700 32008KT P6SM BKN040
     FM282200 36012G22KT P6SM SCT040 BKN070=

USA.gov is the U.S. government's official web portal to all federal, state and local government web resources and services.